createdAt,value
2017-09-26T00:01:38.090Z,82.30
2017-09-26T00:04:07.087Z,82.30
2017-09-26T00:06:35.261Z,82.30
2017-09-26T00:09:03.408Z,82.40
2017-09-26T00:11:31.551Z,82.40
2017-09-26T00:13:59.714Z,83.40
2017-09-26T00:16:28.624Z,83.40
2017-09-26T00:18:56.886Z,83.40
2017-09-26T00:21:25.042Z,83.40
2017-09-26T00:23:53.968Z,83.70
2017-09-26T00:26:22.122Z,83.60
2017-09-26T00:28:50.263Z,83.60
2017-09-26T00:31:18.419Z,83.50
2017-09-26T00:33:46.576Z,83.50
2017-09-26T00:36:14.719Z,83.40
2017-09-26T00:38:43.003Z,83.40
2017-09-26T00:41:11.132Z,83.30
2017-09-26T00:43:40.039Z,83.40
2017-09-26T00:46:08.972Z,83.30
2017-09-26T00:48:37.884Z,83.20
2017-09-26T00:51:06.060Z,83.20
2017-09-26T00:53:34.201Z,83.20
2017-09-26T00:56:02.356Z,83.30
2017-09-26T00:58:30.514Z,83.30
2017-09-26T01:00:58.778Z,83.90
2017-09-26T01:03:26.926Z,83.10
2017-09-26T01:05:58.970Z,83.10
2017-09-26T01:08:27.108Z,83.20
2017-09-26T01:10:55.250Z,83.10
2017-09-26T01:13:24.273Z,83.20
2017-09-26T01:15:52.410Z,83.10
2017-09-26T01:18:21.310Z,83.30
2017-09-26T01:20:49.519Z,83.30
2017-09-26T01:23:17.654Z,83.40
2017-09-26T01:25:45.823Z,83.40
2017-09-26T01:28:14.728Z,83.60
2017-09-26T01:30:42.939Z,83.50
2017-09-26T01:33:11.192Z,83.70
2017-09-26T01:35:39.316Z,83.90
2017-09-26T01:38:08.246Z,83.80
2017-09-26T01:43:44.316Z,83.70
2017-09-26T01:46:12.505Z,83.80
2017-09-26T01:48:40.649Z,83.90
2017-09-26T01:51:08.837Z,83.80
2017-09-26T01:53:37.096Z,83.90
2017-09-26T01:56:05.230Z,84.70
2017-09-26T01:58:35.175Z,84.20
2017-09-26T02:01:03.463Z,84.20
2017-09-26T02:03:31.607Z,84.30
2017-09-26T02:06:00.507Z,84.20
2017-09-26T02:08:28.766Z,84.20
2017-09-26T02:10:56.911Z,84.20
2017-09-26T02:13:25.045Z,84.20
2017-09-26T02:15:53.207Z,84.00
2017-09-26T02:18:21.354Z,84.70
2017-09-26T02:20:50.305Z,84.10
2017-09-26T02:23:18.448Z,84.10
2017-09-26T02:25:46.572Z,84.10
2017-09-26T02:28:14.753Z,84.20
2017-09-26T02:30:43.844Z,84.50
2017-09-26T02:33:11.984Z,84.50
2017-09-26T02:35:40.243Z,84.50
2017-09-26T02:38:08.372Z,84.50
2017-09-26T02:40:37.271Z,84.40
2017-09-26T02:43:05.443Z,84.30
2017-09-26T02:45:33.592Z,84.30
2017-09-26T02:48:01.740Z,84.30
2017-09-26T02:50:30.002Z,84.30
2017-09-26T02:52:58.127Z,84.20
2017-09-26T02:55:27.032Z,84.10
2017-09-26T02:57:55.214Z,84.10
2017-09-26T03:00:23.345Z,84.00
2017-09-26T03:02:52.279Z,83.80
2017-09-26T03:05:20.409Z,83.80
2017-09-26T03:07:49.302Z,83.70
2017-09-26T03:10:18.224Z,83.60
2017-09-26T03:12:46.411Z,83.60
2017-09-26T03:15:14.571Z,83.50
2017-09-26T03:17:42.711Z,83.30
2017-09-26T03:20:11.650Z,83.40
2017-09-26T03:22:39.770Z,83.30
2017-09-26T03:25:08.694Z,83.50
2017-09-26T03:27:36.831Z,83.50
2017-09-26T03:30:05.755Z,83.80
2017-09-26T03:32:33.893Z,83.80
2017-09-26T03:35:02.935Z,83.70
2017-09-26T03:37:31.072Z,83.60
2017-09-26T03:39:59.207Z,83.60
2017-09-26T03:42:27.379Z,83.60
2017-09-26T03:44:55.514Z,83.50
2017-09-26T03:47:23.757Z,83.60
2017-09-26T03:49:52.616Z,83.60
2017-09-26T03:52:21.519Z,83.90
2017-09-26T03:54:50.444Z,84.00
2017-09-26T03:57:18.566Z,83.90
2017-09-26T03:59:46.718Z,84.10
2017-09-26T04:02:14.857Z,84.10
2017-09-26T04:04:43.027Z,84.20
2017-09-26T04:07:11.150Z,84.50
2017-09-26T04:09:39.298Z,84.60
2017-09-26T04:12:07.443Z,84.60
2017-09-26T04:14:35.586Z,84.70
2017-09-26T04:17:04.478Z,84.80
2017-09-26T04:19:33.415Z,84.80
2017-09-26T04:22:01.561Z,84.70
2017-09-26T04:24:29.703Z,84.80
2017-09-26T04:26:58.733Z,84.70
2017-09-26T04:29:26.854Z,84.70
2017-09-26T04:31:55.773Z,84.50
2017-09-26T04:34:23.940Z,84.40
2017-09-26T04:36:52.065Z,84.60
2017-09-26T04:39:20.217Z,84.60
2017-09-26T04:41:48.349Z,84.70
2017-09-26T04:44:17.266Z,84.80
2017-09-26T04:46:45.384Z,84.80
2017-09-26T04:49:13.532Z,85.10
2017-09-26T04:51:41.694Z,84.70
2017-09-26T04:54:10.669Z,84.50
2017-09-26T04:56:38.830Z,84.50
2017-09-26T04:59:06.975Z,84.20
2017-09-26T05:01:35.891Z,84.10
2017-09-26T05:04:04.027Z,84.10
2017-09-26T05:06:32.162Z,84.10
2017-09-26T05:09:01.091Z,84.00
2017-09-26T05:11:30.004Z,83.90
2017-09-26T05:13:58.264Z,83.90
2017-09-26T05:16:27.155Z,83.80
2017-09-26T05:18:56.053Z,83.80
2017-09-26T05:21:24.211Z,83.80
2017-09-26T05:23:53.093Z,83.90
2017-09-26T05:26:22.020Z,83.00
2017-09-26T05:28:50.163Z,83.00
2017-09-26T05:31:19.107Z,83.90
2017-09-26T05:33:47.243Z,83.90
2017-09-26T05:36:15.380Z,83.50
2017-09-26T05:38:43.538Z,83.00
2017-09-26T05:41:11.671Z,82.40
2017-09-26T05:43:39.825Z,82.00
2017-09-26T05:46:07.970Z,81.90
2017-09-26T05:48:36.101Z,81.80
2017-09-26T05:51:04.272Z,82.60
2017-09-26T05:53:32.413Z,82.10
2017-09-26T05:56:00.662Z,81.80
2017-09-26T05:58:29.571Z,81.40
2017-09-26T06:00:57.705Z,81.40
2017-09-26T06:03:25.859Z,81.90
2017-09-26T06:05:54.004Z,81.90
2017-09-26T06:08:22.275Z,81.70
2017-09-26T06:10:50.421Z,81.60
2017-09-26T06:13:19.327Z,81.40
2017-09-26T06:15:47.491Z,81.40
2017-09-26T06:18:15.631Z,81.60
2017-09-26T06:20:43.789Z,81.90
2017-09-26T06:23:12.035Z,81.80
2017-09-26T06:25:40.209Z,81.80
2017-09-26T06:28:08.360Z,81.60
2017-09-26T06:30:36.488Z,81.30
2017-09-26T06:33:04.652Z,80.70
2017-09-26T06:35:32.802Z,80.60
2017-09-26T06:38:00.959Z,80.30
2017-09-26T06:40:29.082Z,80.20
2017-09-26T06:42:57.259Z,80.40
2017-09-26T06:45:26.178Z,79.60
2017-09-26T06:47:54.342Z,79.60
2017-09-26T06:50:23.246Z,78.10
2017-09-26T06:52:51.430Z,78.10
2017-09-26T06:55:19.573Z,77.30
2017-09-26T06:57:48.662Z,76.00
2017-09-26T07:00:17.556Z,76.30
2017-09-26T07:02:46.470Z,75.80
2017-09-26T07:05:14.633Z,75.80
2017-09-26T07:07:42.778Z,75.10
2017-09-26T07:10:11.813Z,74.60
2017-09-26T07:12:39.949Z,74.60
2017-09-26T07:15:08.975Z,73.90
2017-09-26T07:17:37.136Z,73.90
2017-09-26T07:20:05.283Z,73.40
2017-09-26T07:22:34.214Z,71.60
2017-09-26T07:25:02.377Z,71.60
2017-09-26T07:27:30.534Z,71.10
2017-09-26T07:29:58.665Z,70.70
2017-09-26T07:32:26.923Z,69.70
2017-09-26T07:34:55.061Z,68.90
2017-09-26T07:37:23.181Z,67.60
2017-09-26T07:39:51.325Z,69.00
2017-09-26T07:42:19.470Z,69.20
2017-09-26T07:44:47.650Z,68.60
2017-09-26T07:47:15.825Z,68.30
2017-09-26T07:49:43.950Z,67.80
2017-09-26T07:52:12.887Z,66.50
2017-09-26T07:54:41.025Z,66.50
2017-09-26T07:57:09.967Z,66.60
2017-09-26T07:59:38.107Z,66.70
2017-09-26T08:02:06.722Z,66.10
2017-09-26T08:04:35.301Z,65.20
2017-09-26T08:07:03.853Z,64.80
2017-09-26T08:09:32.458Z,64.50
2017-09-26T08:12:00.590Z,65.40
2017-09-26T08:14:29.614Z,66.00
2017-09-26T08:16:57.760Z,66.10
2017-09-26T08:19:25.884Z,65.70
2017-09-26T08:21:54.059Z,65.90
2017-09-26T08:24:22.208Z,65.50
2017-09-26T08:26:50.384Z,65.20
2017-09-26T08:29:19.284Z,64.30
2017-09-26T08:31:47.429Z,64.30
2017-09-26T08:34:15.605Z,64.80
2017-09-26T08:36:43.749Z,64.00
2017-09-26T08:39:12.025Z,63.80
2017-09-26T08:41:40.166Z,63.10
2017-09-26T08:44:08.307Z,62.70
2017-09-26T08:46:36.473Z,62.50
2017-09-26T08:49:04.611Z,61.70
2017-09-26T08:51:32.779Z,60.60
2017-09-26T08:54:00.919Z,61.30
2017-09-26T08:56:29.064Z,61.20
2017-09-26T08:58:57.245Z,60.70
2017-09-26T09:01:25.398Z,60.70
2017-09-26T09:03:53.568Z,61.40
2017-09-26T09:06:21.693Z,62.10
2017-09-26T09:08:50.585Z,63.10
2017-09-26T09:11:18.775Z,63.10
2017-09-26T09:13:46.915Z,61.10
2017-09-26T09:16:15.960Z,60.20
2017-09-26T09:18:44.085Z,60.20
2017-09-26T09:21:12.982Z,60.50
2017-09-26T09:23:41.910Z,61.40
2017-09-26T09:26:10.044Z,60.60
2017-09-26T09:28:39.066Z,60.00
2017-09-26T09:31:07.188Z,60.00
2017-09-26T09:33:35.312Z,60.10
2017-09-26T09:36:03.465Z,60.10
2017-09-26T09:38:31.614Z,60.00
2017-09-26T09:41:00.650Z,60.40
2017-09-26T09:43:28.777Z,60.30
2017-09-26T09:45:57.687Z,59.80
2017-09-26T09:48:25.864Z,59.70
2017-09-26T09:50:54.003Z,58.80
2017-09-26T09:53:22.175Z,56.40
2017-09-26T09:55:50.327Z,56.00
2017-09-26T09:58:18.467Z,55.60
2017-09-26T10:00:46.629Z,55.90
2017-09-26T10:03:14.774Z,55.70
2017-09-26T10:05:43.718Z,55.10
2017-09-26T10:08:11.865Z,55.10
2017-09-26T10:10:40.007Z,55.80
2017-09-26T10:13:08.944Z,54.20
2017-09-26T10:15:37.074Z,54.30
2017-09-26T10:18:06.089Z,55.40
2017-09-26T10:20:34.219Z,55.30
2017-09-26T10:23:02.355Z,54.80
2017-09-26T10:25:30.510Z,55.20
2017-09-26T10:27:58.649Z,54.50
2017-09-26T10:30:27.566Z,53.50
2017-09-26T10:32:55.692Z,53.50
2017-09-26T10:35:23.855Z,54.50
2017-09-26T10:37:51.999Z,53.70
2017-09-26T10:40:20.161Z,53.60
2017-09-26T10:42:48.290Z,54.30
2017-09-26T10:45:17.226Z,53.80
2017-09-26T10:47:45.379Z,53.80
2017-09-26T10:50:13.537Z,54.60
2017-09-26T10:52:42.466Z,55.50
2017-09-26T10:55:10.599Z,55.50
2017-09-26T10:57:38.795Z,55.80
2017-09-26T11:00:06.941Z,55.30
2017-09-26T11:02:35.112Z,56.70
2017-09-26T11:05:04.015Z,56.30
2017-09-26T11:07:32.155Z,56.30
2017-09-26T11:10:01.098Z,57.80
2017-09-26T11:12:29.249Z,57.70
2017-09-26T11:14:57.423Z,57.40
2017-09-26T11:17:25.555Z,57.90
2017-09-26T11:19:53.694Z,58.00
2017-09-26T11:22:21.849Z,58.60
2017-09-26T11:24:49.989Z,58.60
2017-09-26T11:27:18.939Z,58.00
2017-09-26T11:29:47.062Z,58.00
2017-09-26T11:32:15.247Z,58.60
2017-09-26T11:34:43.390Z,59.40
2017-09-26T11:37:12.286Z,59.00
2017-09-26T11:39:41.219Z,58.70
2017-09-26T11:42:09.360Z,58.70
2017-09-26T11:44:37.518Z,59.10
2017-09-26T11:47:06.405Z,59.40
2017-09-26T11:49:35.437Z,59.40
2017-09-26T11:52:03.586Z,59.40
2017-09-26T11:54:31.719Z,59.80
2017-09-26T11:56:59.886Z,59.80
2017-09-26T11:59:28.029Z,59.60
2017-09-26T12:01:56.198Z,58.50
2017-09-26T12:04:24.335Z,58.80
2017-09-26T12:06:52.493Z,59.10
2017-09-26T12:09:21.402Z,59.00
2017-09-26T12:11:49.559Z,59.00
2017-09-26T12:14:18.504Z,58.50
2017-09-26T12:16:46.657Z,58.50
2017-09-26T12:19:14.830Z,59.00
2017-09-26T12:21:42.968Z,59.70
2017-09-26T12:24:11.148Z,60.30
2017-09-26T12:26:39.288Z,61.00
2017-09-26T12:29:07.446Z,61.90
2017-09-26T12:31:35.582Z,62.70
2017-09-26T12:34:03.729Z,63.60
2017-09-26T12:36:31.910Z,64.10
2017-09-26T12:39:00.047Z,64.20
2017-09-26T12:41:28.218Z,62.60
2017-09-26T12:43:56.370Z,62.50
2017-09-26T12:46:24.538Z,61.40
2017-09-26T12:48:53.450Z,62.70
2017-09-26T12:51:21.582Z,62.70
2017-09-26T12:53:49.754Z,63.20
2017-09-26T12:56:17.893Z,63.50
2017-09-26T12:58:46.147Z,61.90
2017-09-26T13:01:15.048Z,62.40
2017-09-26T13:03:43.990Z,63.70
2017-09-26T13:06:12.159Z,63.70
2017-09-26T13:08:40.298Z,61.70
2017-09-26T13:11:08.568Z,60.30
2017-09-26T13:13:36.728Z,60.70
2017-09-26T13:16:05.630Z,62.20
2017-09-26T13:18:33.814Z,62.20
2017-09-26T13:21:01.946Z,62.20
2017-09-26T13:23:31.831Z,62.10
2017-09-26T13:25:59.974Z,62.10
2017-09-26T13:28:28.120Z,62.20
2017-09-26T13:30:57.033Z,62.30
2017-09-26T13:33:25.176Z,62.30
2017-09-26T13:35:54.201Z,62.90
2017-09-26T13:38:22.328Z,62.90
2017-09-26T13:40:51.234Z,63.10
2017-09-26T13:43:19.403Z,63.10
2017-09-26T13:45:47.551Z,63.50
2017-09-26T13:48:15.686Z,63.90
2017-09-26T13:50:43.865Z,64.80
2017-09-26T13:53:12.018Z,64.30
2017-09-26T13:55:40.310Z,64.00
2017-09-26T13:58:08.443Z,64.10
2017-09-26T14:00:36.585Z,64.60
2017-09-26T14:03:04.766Z,64.80
2017-09-26T14:05:33.676Z,65.00
2017-09-26T14:08:01.849Z,65.00
2017-09-26T14:10:29.996Z,65.50
2017-09-26T14:12:58.955Z,64.90
2017-09-26T14:15:27.097Z,64.90
2017-09-26T14:17:55.274Z,64.90
2017-09-26T14:20:23.425Z,65.00
2017-09-26T14:22:51.563Z,65.00
2017-09-26T14:25:19.744Z,64.80
2017-09-26T14:27:47.906Z,64.70
2017-09-26T14:30:16.175Z,64.50
2017-09-26T14:32:44.315Z,64.80
2017-09-26T14:35:12.442Z,65.10
2017-09-26T14:37:41.378Z,65.20
2017-09-26T14:40:09.514Z,65.20
2017-09-26T14:42:38.456Z,65.10
2017-09-26T14:45:06.637Z,65.10
2017-09-26T14:47:34.948Z,65.40
2017-09-26T14:50:03.092Z,65.70
2017-09-26T14:52:31.234Z,65.10
2017-09-26T14:54:59.484Z,65.30
2017-09-26T14:57:27.614Z,65.40
2017-09-26T14:59:56.021Z,64.90
2017-09-26T15:02:24.163Z,65.20
2017-09-26T15:04:52.307Z,65.50
2017-09-26T15:07:20.491Z,65.70
2017-09-26T15:09:48.651Z,66.10
2017-09-26T15:12:16.831Z,65.90
2017-09-26T15:14:44.987Z,66.50
2017-09-26T15:17:13.186Z,66.20
2017-09-26T15:19:41.367Z,66.80
2017-09-26T15:22:09.517Z,67.00
2017-09-26T15:24:37.693Z,66.90
2017-09-26T15:27:05.837Z,67.70
2017-09-26T15:29:33.981Z,67.60
2017-09-26T15:32:02.182Z,67.50
2017-09-26T15:34:30.334Z,67.30
2017-09-26T15:36:58.522Z,67.10
2017-09-26T15:39:26.665Z,66.40
2017-09-26T15:41:55.562Z,66.30
2017-09-26T15:44:23.740Z,66.30
2017-09-26T15:46:51.869Z,66.50
2017-09-26T15:49:20.028Z,66.50
2017-09-26T15:51:48.180Z,66.20
2017-09-26T15:54:17.093Z,66.00
2017-09-26T15:56:45.282Z,66.00
2017-09-26T15:59:13.422Z,66.40
2017-09-26T16:01:41.599Z,66.40
2017-09-26T16:04:09.762Z,66.00
2017-09-26T16:06:37.913Z,66.00
2017-09-26T16:09:06.102Z,66.10
2017-09-26T16:11:34.244Z,65.90
2017-09-26T16:14:02.568Z,65.90
2017-09-26T16:16:30.706Z,65.80
2017-09-26T16:18:58.843Z,65.80
2017-09-26T16:21:27.778Z,65.90
2017-09-26T16:23:55.931Z,65.90
2017-09-26T16:26:24.115Z,66.30
2017-09-26T16:28:52.262Z,66.50
2017-09-26T16:31:20.415Z,65.80
2017-09-26T16:33:49.356Z,66.50
2017-09-26T16:36:17.535Z,66.50
2017-09-26T16:38:45.830Z,66.40
2017-09-26T16:41:13.977Z,66.70
2017-09-26T16:46:12.785Z,67.00
2017-09-26T16:48:40.934Z,66.90
2017-09-26T16:51:11.867Z,67.30
2017-09-26T16:53:53.360Z,66.50
2017-09-26T16:56:22.049Z,66.60
2017-09-26T16:58:50.191Z,67.10
2017-09-26T17:01:18.334Z,68.20
2017-09-26T17:03:46.516Z,68.90
2017-09-26T17:06:15.422Z,70.20
2017-09-26T17:08:44.386Z,70.10
2017-09-26T17:11:12.559Z,70.10
2017-09-26T17:13:40.737Z,70.00
2017-09-26T17:16:08.883Z,69.90
2017-09-26T17:18:37.027Z,70.80
2017-09-26T17:21:05.190Z,70.90
2017-09-26T17:23:33.337Z,71.30
2017-09-26T17:26:03.284Z,71.90
2017-09-26T17:28:31.419Z,72.00
2017-09-26T17:31:00.355Z,72.60
2017-09-26T17:33:28.492Z,72.60
2017-09-26T17:35:56.707Z,72.90
2017-09-26T17:38:24.846Z,73.20
2017-09-26T17:40:52.979Z,73.60
2017-09-26T17:43:21.931Z,74.20
2017-09-26T17:45:50.067Z,74.20
2017-09-26T17:48:18.340Z,74.50
2017-09-26T17:50:46.487Z,74.70
2017-09-26T17:53:14.631Z,75.10
2017-09-26T17:55:42.805Z,75.30
2017-09-26T17:58:10.935Z,75.50
2017-09-26T18:00:39.102Z,75.70
2017-09-26T18:03:07.264Z,76.00
2017-09-26T18:05:36.447Z,76.40
2017-09-26T18:08:05.408Z,76.70
2017-09-26T18:10:33.556Z,76.70
2017-09-26T18:13:01.826Z,76.90
2017-09-26T18:15:30.020Z,77.00
2017-09-26T18:17:58.181Z,77.30
2017-09-26T18:20:26.429Z,77.40
2017-09-26T18:22:54.574Z,77.60
2017-09-26T18:25:23.550Z,78.00
2017-09-26T18:27:52.604Z,78.10
2017-09-26T18:30:21.079Z,78.10
2017-09-26T18:32:49.318Z,78.10
2017-09-26T18:35:18.516Z,78.40
2017-09-26T18:37:47.083Z,79.20
2017-09-26T18:40:15.651Z,78.50
2017-09-26T18:42:45.230Z,78.90
2017-09-26T18:45:15.287Z,78.80
2017-09-26T18:47:44.827Z,78.90
2017-09-26T18:50:14.908Z,79.20
2017-09-26T18:52:44.213Z,79.20
2017-09-26T18:55:13.475Z,79.30
2017-09-26T18:57:42.815Z,79.20
2017-09-26T19:00:12.287Z,79.30
2017-09-26T19:02:41.665Z,79.20
2017-09-26T19:05:11.896Z,79.40
2017-09-26T19:07:41.202Z,79.40
2017-09-26T19:10:10.779Z,79.50
2017-09-26T19:12:40.118Z,79.70
2017-09-26T19:15:09.447Z,79.70
2017-09-26T19:17:38.837Z,79.80
2017-09-26T19:20:08.344Z,79.80
2017-09-26T19:22:39.825Z,79.80
2017-09-26T19:25:09.086Z,79.80
2017-09-26T19:27:38.548Z,79.80
2017-09-26T19:30:08.151Z,79.70
2017-09-26T19:32:37.456Z,79.70
2017-09-26T19:35:06.998Z,79.70
2017-09-26T19:37:36.370Z,79.60
2017-09-26T19:40:05.945Z,79.60
2017-09-26T19:42:36.167Z,79.70
2017-09-26T19:45:05.573Z,79.90
2017-09-26T19:47:34.921Z,80.10
2017-09-26T19:50:04.260Z,80.20
2017-09-26T19:52:33.750Z,80.40
2017-09-26T19:55:03.870Z,80.40
2017-09-26T19:57:34.100Z,80.30
2017-09-26T20:00:03.407Z,80.30
2017-09-26T20:02:33.724Z,80.00
2017-09-26T20:05:03.001Z,80.00
2017-09-26T20:07:32.443Z,80.20
2017-09-26T20:10:01.844Z,80.30
2017-09-26T20:12:31.266Z,80.30
2017-09-26T20:15:00.613Z,80.70
2017-09-26T20:17:30.670Z,80.40
2017-09-26T20:20:00.707Z,80.40
2017-09-26T20:22:29.961Z,80.50
2017-09-26T20:24:59.197Z,80.50
2017-09-26T20:27:28.529Z,80.60
2017-09-26T20:29:57.600Z,80.50
2017-09-26T20:32:27.499Z,80.80
2017-09-26T20:34:55.905Z,80.70
2017-09-26T20:37:24.718Z,80.30
2017-09-26T20:39:52.928Z,80.80
2017-09-26T20:42:21.117Z,81.00
2017-09-26T20:44:49.288Z,81.10
2017-09-26T20:47:17.424Z,81.20
2017-09-26T20:49:45.711Z,81.20
2017-09-26T20:52:13.839Z,81.20
2017-09-26T20:54:42.016Z,81.30
2017-09-26T20:57:10.260Z,81.30
2017-09-26T20:59:39.200Z,81.50
2017-09-26T21:02:07.384Z,81.50
2017-09-26T21:04:35.517Z,81.60
2017-09-26T21:07:03.677Z,81.80
2017-09-26T21:09:32.660Z,82.00
2017-09-26T21:12:01.242Z,82.10
2017-09-26T21:14:30.303Z,82.00
2017-09-26T21:16:58.432Z,82.00
2017-09-26T21:19:26.588Z,82.80
2017-09-26T21:21:54.752Z,82.10
2017-09-26T21:24:22.914Z,82.10
2017-09-26T21:26:51.185Z,82.20
2017-09-26T21:29:19.355Z,82.30
2017-09-26T21:31:47.477Z,82.20
2017-09-26T21:34:15.633Z,82.20
2017-09-26T21:36:43.784Z,82.60
2017-09-26T21:39:12.708Z,82.70
2017-09-26T21:41:40.858Z,82.70
2017-09-26T21:44:08.999Z,82.90
2017-09-26T21:46:37.162Z,83.00
2017-09-26T21:49:05.315Z,82.90
2017-09-26T21:51:33.455Z,82.80
2017-09-26T21:54:01.621Z,82.80
2017-09-26T21:56:29.770Z,83.20
2017-09-26T21:58:58.702Z,82.60
2017-09-26T22:01:27.637Z,82.60
2017-09-26T22:03:55.810Z,82.60
2017-09-26T22:06:23.958Z,82.60
2017-09-26T22:08:52.258Z,82.40
2017-09-26T22:11:20.427Z,82.40
2017-09-26T22:13:48.565Z,82.40
2017-09-26T22:16:17.490Z,82.40
2017-09-26T22:18:45.633Z,82.40
2017-09-26T22:21:13.799Z,82.40
2017-09-26T22:23:41.942Z,82.50
2017-09-26T22:26:10.071Z,82.50
2017-09-26T22:28:38.221Z,82.50
2017-09-26T22:31:06.375Z,82.50
2017-09-26T22:33:34.545Z,82.70
2017-09-26T22:36:02.672Z,82.70
2017-09-26T22:38:31.585Z,82.90
2017-09-26T22:40:59.751Z,82.90
2017-09-26T22:43:27.962Z,83.10
2017-09-26T22:45:56.129Z,82.90
2017-09-26T22:48:24.270Z,83.00
2017-09-26T22:50:52.459Z,82.90
2017-09-26T22:53:20.596Z,82.90
2017-09-26T22:55:49.508Z,82.80
2017-09-26T22:58:17.667Z,82.80
2017-09-26T23:00:46.576Z,82.60
2017-09-26T23:03:14.742Z,82.70
2017-09-26T23:05:42.888Z,82.60
2017-09-26T23:08:11.835Z,82.60
2017-09-26T23:10:40.001Z,82.60
2017-09-26T23:13:08.167Z,82.60
2017-09-26T23:15:36.288Z,82.60
2017-09-26T23:18:05.240Z,82.60
2017-09-26T23:20:33.397Z,82.50
2017-09-26T23:23:01.539Z,82.50
2017-09-26T23:25:30.467Z,82.60
2017-09-26T23:27:58.618Z,82.50
2017-09-26T23:30:26.798Z,82.50
2017-09-26T23:32:54.943Z,82.60
2017-09-26T23:35:23.847Z,82.80
2017-09-26T23:37:52.039Z,82.80
2017-09-26T23:40:20.175Z,82.90
2017-09-26T23:42:49.103Z,83.80
2017-09-26T23:45:17.241Z,83.20
2017-09-26T23:47:45.508Z,83.30
2017-09-26T23:50:13.651Z,83.50
2017-09-26T23:52:41.778Z,83.60
2017-09-26T23:55:09.940Z,83.70
2017-09-26T23:57:38.077Z,83.70
